createdAt,value
2018-09-05T00:01:14.781Z,10.67
2018-09-05T00:03:43.191Z,12.43
2018-09-05T00:06:11.414Z,11.67
2018-09-05T00:08:39.640Z,10.80
2018-09-05T00:11:07.845Z,12.90
2018-09-05T00:13:36.001Z,9.63
2018-09-05T00:16:04.131Z,13.53
2018-09-05T00:18:32.989Z,10.27
2018-09-05T00:21:01.123Z,10.17
2018-09-05T00:23:29.254Z,12.17
2018-09-05T00:25:57.411Z,10.60
2018-09-05T00:28:25.667Z,13.40
2018-09-05T00:30:53.783Z,13.67
2018-09-05T00:33:22.175Z,13.00
2018-09-05T00:35:50.554Z,11.80
2018-09-05T00:38:18.745Z,11.13
2018-09-05T00:40:46.899Z,11.33
2018-09-05T00:43:15.033Z,10.97
2018-09-05T00:45:43.210Z,11.20
2018-09-05T00:48:11.415Z,12.37
2018-09-05T00:50:39.539Z,9.23
2018-09-05T00:53:07.669Z,10.43
2018-09-05T00:55:35.794Z,13.70
2018-09-05T00:58:03.952Z,13.80
2018-09-05T01:00:32.049Z,12.40
2018-09-05T01:03:00.453Z,12.50
2018-09-05T01:05:28.551Z,11.23
2018-09-05T01:07:56.693Z,14.77
2018-09-05T01:10:31.746Z,11.63
2018-09-05T01:12:59.885Z,13.13
2018-09-05T01:15:28.037Z,13.47
2018-09-05T01:17:56.352Z,15.33
2018-09-05T01:20:24.584Z,11.13
2018-09-05T01:22:52.833Z,13.20
2018-09-05T01:25:21.017Z,16.37
2018-09-05T01:27:49.213Z,14.43
2018-09-05T01:30:17.329Z,12.27
2018-09-05T01:32:45.477Z,13.20
2018-09-05T01:35:13.657Z,17.70
2018-09-05T01:37:42.357Z,13.40
2018-09-05T01:40:10.574Z,14.17
2018-09-05T01:42:38.826Z,13.20
2018-09-05T01:45:07.067Z,18.00
2018-09-05T01:47:35.245Z,14.53
2018-09-05T01:50:03.585Z,14.17
2018-09-05T01:52:31.800Z,13.73
2018-09-05T01:54:59.997Z,13.27
2018-09-05T01:57:28.185Z,14.03
2018-09-05T01:59:56.377Z,16.80
2018-09-05T02:02:25.653Z,15.83
2018-09-05T02:04:54.513Z,16.83
2018-09-05T02:07:22.807Z,18.37
2018-09-05T02:09:50.959Z,14.03
2018-09-05T02:12:19.103Z,15.73
2018-09-05T02:14:47.229Z,15.07
2018-09-05T02:17:15.385Z,14.40
2018-09-05T02:19:43.556Z,17.30
2018-09-05T02:22:11.726Z,15.87
2018-09-05T02:24:39.985Z,18.80
2018-09-05T02:27:08.521Z,18.87
2018-09-05T02:29:36.657Z,17.20
2018-09-05T02:32:04.890Z,15.30
2018-09-05T02:34:33.015Z,23.83
2018-09-05T02:37:01.216Z,21.67
2018-09-05T02:39:29.459Z,29.37
2018-09-05T02:41:57.794Z,28.83
2018-09-05T02:44:26.010Z,35.73
2018-09-05T02:46:54.205Z,36.87
2018-09-05T02:49:22.432Z,39.90
2018-09-05T02:51:50.659Z,40.27
2018-09-05T02:54:18.938Z,40.03
2018-09-05T02:56:47.207Z,36.50
2018-09-05T02:59:15.367Z,46.33
2018-09-05T03:01:43.540Z,45.00
2018-09-05T03:04:11.918Z,38.70
2018-09-05T03:06:40.095Z,41.77
2018-09-05T03:09:08.874Z,43.67
2018-09-05T03:11:37.160Z,45.30
2018-09-05T03:14:06.160Z,42.90
2018-09-05T03:16:34.296Z,53.77
2018-09-05T03:19:04.108Z,54.77
2018-09-05T03:21:30.722Z,47.50
2018-09-05T03:23:58.871Z,50.63
2018-09-05T03:26:27.122Z,51.10
2018-09-05T03:28:55.270Z,54.23
2018-09-05T03:31:23.439Z,47.43
2018-09-05T03:33:51.882Z,45.40
2018-09-05T03:36:20.021Z,51.07
2018-09-05T03:38:48.385Z,42.80
2018-09-05T03:41:16.517Z,53.10
2018-09-05T03:43:44.676Z,45.07
2018-09-05T03:46:12.846Z,49.77
2018-09-05T03:48:41.003Z,51.80
2018-09-05T03:51:09.133Z,49.63
2018-09-05T03:53:37.309Z,52.13
2018-09-05T03:56:05.527Z,51.67
2018-09-05T03:58:33.734Z,45.97
2018-09-05T04:01:01.875Z,48.00
2018-09-05T04:03:30.136Z,47.00
2018-09-05T04:05:58.254Z,45.40
2018-09-05T04:08:26.494Z,46.27
2018-09-05T04:10:54.677Z,50.77
2018-09-05T04:13:22.843Z,52.57
2018-09-05T04:15:51.229Z,52.13
2018-09-05T04:18:19.532Z,45.73
2018-09-05T04:20:47.664Z,45.03
2018-09-05T04:23:18.888Z,46.63
2018-09-05T04:25:47.045Z,44.83
2018-09-05T04:28:15.399Z,40.80
2018-09-05T04:30:43.570Z,51.03
2018-09-05T04:33:11.924Z,48.97
2018-09-05T04:35:40.244Z,47.07
2018-09-05T04:38:08.467Z,43.40
2018-09-05T04:40:36.614Z,37.20
2018-09-05T04:43:04.828Z,41.80
2018-09-05T04:45:33.149Z,42.97
2018-09-05T04:48:01.400Z,45.53
2018-09-05T04:50:29.575Z,43.87
2018-09-05T04:52:57.729Z,40.73
2018-09-05T04:55:25.997Z,39.60
2018-09-05T04:57:54.211Z,40.37
2018-09-05T05:00:22.435Z,41.30
2018-09-05T05:02:50.698Z,36.33
2018-09-05T05:05:18.937Z,42.53
2018-09-05T05:07:47.256Z,43.43
2018-09-05T05:10:15.433Z,39.80
2018-09-05T05:12:43.653Z,34.50
2018-09-05T05:15:16.067Z,33.10
2018-09-05T05:17:44.217Z,33.77
2018-09-05T05:20:12.507Z,35.10
2018-09-05T05:22:40.707Z,31.87
2018-09-05T05:25:09.023Z,29.53
2018-09-05T05:27:37.467Z,31.30
2018-09-05T05:30:06.199Z,34.20
2018-09-05T05:32:34.787Z,26.83
2018-09-05T05:35:07.123Z,29.10
2018-09-05T05:37:35.401Z,26.50
2018-09-05T05:40:06.158Z,33.17
2018-09-05T05:42:35.229Z,34.90
2018-09-05T05:45:04.364Z,23.53
2018-09-05T05:47:33.362Z,23.60
2018-09-05T05:50:02.189Z,30.17
2018-09-05T05:52:30.819Z,24.20
2018-09-05T05:54:59.509Z,26.80
2018-09-05T05:57:27.791Z,24.63
2018-09-05T05:59:56.732Z,26.23
2018-09-05T06:02:25.296Z,32.63
2018-09-05T06:04:53.590Z,30.93
2018-09-05T06:07:21.863Z,23.37
2018-09-05T06:09:50.078Z,17.90
2018-09-05T06:12:18.345Z,25.53
2018-09-05T06:14:46.540Z,24.70
2018-09-05T06:17:14.839Z,21.30
2018-09-05T06:19:42.999Z,25.07
2018-09-05T06:22:11.253Z,20.57
2018-09-05T06:24:40.312Z,21.97
2018-09-05T06:27:08.785Z,22.10
2018-09-05T06:29:36.955Z,23.77
2018-09-05T06:32:05.274Z,19.57
2018-09-05T06:34:33.558Z,24.67
2018-09-05T06:37:01.843Z,21.30
2018-09-05T06:39:30.426Z,21.40
2018-09-05T06:41:58.654Z,24.40
2018-09-05T06:44:26.893Z,20.60
2018-09-05T06:46:55.107Z,21.67
2018-09-05T06:49:23.427Z,17.47
2018-09-05T06:51:51.713Z,17.33
2018-09-05T06:54:19.831Z,16.63
2018-09-05T06:56:48.065Z,22.80
2018-09-05T06:59:16.505Z,16.00
2018-09-05T07:01:44.731Z,18.57
2018-09-05T07:04:13.309Z,17.63
2018-09-05T07:06:42.013Z,19.13
2018-09-05T07:09:12.473Z,17.63
2018-09-05T07:11:41.245Z,19.50
2018-09-05T07:14:09.594Z,20.20
2018-09-05T07:16:38.576Z,14.33
2018-09-05T07:19:08.325Z,16.27
2018-09-05T07:21:36.824Z,16.70
2018-09-05T07:24:05.159Z,16.30
2018-09-05T07:26:33.635Z,16.93
2018-09-05T07:29:02.021Z,14.43
2018-09-05T07:31:30.613Z,15.77
2018-09-05T07:33:58.994Z,19.73
2018-09-05T07:36:27.243Z,14.43
2018-09-05T07:38:55.436Z,14.20
2018-09-05T07:41:23.649Z,16.17
2018-09-05T07:43:52.111Z,14.43
2018-09-05T07:46:20.382Z,13.87
2018-09-05T07:48:48.638Z,13.37
2018-09-05T07:51:17.625Z,18.47
2018-09-05T07:53:45.938Z,13.60
2018-09-05T07:56:14.057Z,20.70
2018-09-05T07:58:49.027Z,25.33
2018-09-05T08:01:17.238Z,19.10
2018-09-05T08:03:45.339Z,14.63
2018-09-05T08:06:13.806Z,12.03
2018-09-05T08:08:42.003Z,19.50
2018-09-05T08:11:10.274Z,16.37
2018-09-05T08:13:38.460Z,17.87
2018-09-05T08:16:07.286Z,12.50
2018-09-05T08:18:35.674Z,16.63
2018-09-05T08:21:03.872Z,18.40
2018-09-05T08:23:32.097Z,19.13
2018-09-05T08:26:00.333Z,16.93
2018-09-05T08:28:28.607Z,12.30
2018-09-05T08:30:56.837Z,18.07
2018-09-05T08:33:25.064Z,19.87
2018-09-05T08:35:53.752Z,17.87
2018-09-05T08:38:21.917Z,14.67
2018-09-05T08:40:51.013Z,17.13
2018-09-05T08:43:19.260Z,14.07
2018-09-05T08:45:47.671Z,14.57
2018-09-05T08:48:15.936Z,12.07
2018-09-05T08:50:44.066Z,12.93
2018-09-05T08:53:12.968Z,17.80
2018-09-05T08:55:41.774Z,11.87
2018-09-05T08:58:16.775Z,13.80
2018-09-05T09:00:45.638Z,12.00
2018-09-05T09:03:15.633Z,12.37
2018-09-05T09:05:43.887Z,14.37
2018-09-05T09:08:12.475Z,16.80
2018-09-05T09:10:41.002Z,13.40
2018-09-05T09:13:09.985Z,12.47
2018-09-05T09:15:38.229Z,10.90
2018-09-05T09:18:06.771Z,16.77
2018-09-05T09:20:35.077Z,10.20
2018-09-05T09:23:03.373Z,10.67
2018-09-05T09:25:31.745Z,11.80
2018-09-05T09:27:59.964Z,6.53
2018-09-05T09:30:28.395Z,7.93
2018-09-05T09:32:56.575Z,10.77
2018-09-05T09:35:24.734Z,11.60
2018-09-05T09:37:53.035Z,11.20
2018-09-05T09:40:21.324Z,13.37
2018-09-05T09:42:49.531Z,11.63
2018-09-05T09:45:17.659Z,11.03
2018-09-05T09:47:45.807Z,11.10
2018-09-05T09:50:13.998Z,7.40
2018-09-05T09:52:42.129Z,7.33
2018-09-05T09:55:10.295Z,8.80
2018-09-05T09:57:38.826Z,16.03
2018-09-05T10:00:07.706Z,14.90
2018-09-05T10:02:41.068Z,15.63
2018-09-05T10:05:14.604Z,11.83
2018-09-05T10:07:56.759Z,13.30
2018-09-05T10:10:30.310Z,10.10
2018-09-05T10:13:03.871Z,11.53
2018-09-05T10:15:37.379Z,7.33
2018-09-05T10:18:11.209Z,9.97
2018-09-05T10:20:40.901Z,11.90
2018-09-05T10:23:09.157Z,9.63
2018-09-05T10:25:37.409Z,13.80
2018-09-05T10:28:05.876Z,9.97
2018-09-05T10:30:34.325Z,12.50
2018-09-05T10:33:02.665Z,11.03
2018-09-05T10:35:30.846Z,16.27
2018-09-05T10:37:59.215Z,12.30
2018-09-05T10:40:27.381Z,11.07
2018-09-05T15:10:51.137Z,10.83
2018-09-05T15:13:19.311Z,14.90
2018-09-05T15:15:47.735Z,7.00
2018-09-05T15:18:15.043Z,13.90
2018-09-05T15:20:43.253Z,7.63
2018-09-05T15:23:10.570Z,13.70
2018-09-05T15:25:37.799Z,11.17
2018-09-05T15:28:05.053Z,8.83
2018-09-05T15:30:32.375Z,16.33
2018-09-05T15:32:59.614Z,10.43
2018-09-05T15:35:26.890Z,12.93
2018-09-05T15:37:54.108Z,13.40
2018-09-05T15:40:21.317Z,12.57
2018-09-05T15:42:48.619Z,10.43
2018-09-05T15:45:15.880Z,8.27
2018-09-05T15:47:43.951Z,11.70
2018-09-05T15:50:11.396Z,8.10
2018-09-05T15:52:38.656Z,8.57
2018-09-05T15:55:06.606Z,12.40
2018-09-05T15:57:33.910Z,11.47
2018-09-05T16:00:01.109Z,6.47
2018-09-05T16:02:28.384Z,12.33
2018-09-05T16:04:55.608Z,10.67
2018-09-05T16:07:22.832Z,11.07
2018-09-05T16:09:50.143Z,11.87
2018-09-05T16:12:17.366Z,9.00
2018-09-05T16:14:44.702Z,10.27
2018-09-05T16:17:12.010Z,11.43
2018-09-05T16:19:39.350Z,15.27
2018-09-05T16:22:06.975Z,9.50
2018-09-05T16:24:34.329Z,9.27
2018-09-05T16:27:01.688Z,9.53
2018-09-05T16:29:29.146Z,5.90
2018-09-05T16:31:56.439Z,6.60
2018-09-05T16:34:23.740Z,8.07
2018-09-05T16:36:51.047Z,6.63
2018-09-05T16:39:18.339Z,12.33
2018-09-05T16:41:45.611Z,19.93
2018-09-05T16:44:12.850Z,18.80
2018-09-05T16:46:40.161Z,13.27
2018-09-05T16:49:07.390Z,13.07
2018-09-05T16:51:34.744Z,11.17
2018-09-05T16:54:02.684Z,13.50
2018-09-05T16:56:30.260Z,6.43
2018-09-05T16:58:57.475Z,10.10
2018-09-05T17:01:25.511Z,6.67
2018-09-05T17:03:52.752Z,9.23
2018-09-05T17:06:20.020Z,12.03
2018-09-05T17:08:47.418Z,8.60
2018-09-05T17:11:14.734Z,5.87
2018-09-05T17:13:41.946Z,9.80
2018-09-05T17:16:09.359Z,9.77
2018-09-05T17:18:36.613Z,10.90
2018-09-05T17:21:03.961Z,12.27
2018-09-05T17:23:31.247Z,10.03
2018-09-05T17:25:58.572Z,11.37
2018-09-05T17:28:25.909Z,19.87
2018-09-05T17:30:53.145Z,10.63
2018-09-05T17:33:20.369Z,14.33
2018-09-05T17:35:47.605Z,17.67
2018-09-05T17:38:14.871Z,15.53
2018-09-05T17:40:42.128Z,11.33
2018-09-05T17:43:09.400Z,17.93
2018-09-05T17:45:36.715Z,11.73
2018-09-05T17:48:04.083Z,11.90
2018-09-05T17:50:31.339Z,7.63
2018-09-05T17:52:58.620Z,13.77
2018-09-05T17:55:26.008Z,14.57
2018-09-05T17:57:54.942Z,9.73
2018-09-05T18:00:22.152Z,11.10
2018-09-05T18:02:49.502Z,17.17
2018-09-05T18:05:16.774Z,7.80
2018-09-05T18:07:44.070Z,11.13
2018-09-05T18:10:11.377Z,13.20
2018-09-05T18:12:38.656Z,11.93
2018-09-05T18:15:05.980Z,17.20
2018-09-05T18:17:33.396Z,16.87
2018-09-05T18:20:01.032Z,10.97
2018-09-05T18:22:28.505Z,14.87
2018-09-05T18:24:55.994Z,11.37
2018-09-05T18:27:23.268Z,20.33
2018-09-05T18:29:50.550Z,16.23
2018-09-05T18:32:17.858Z,17.57
2018-09-05T18:34:45.160Z,25.77
2018-09-05T18:37:12.419Z,26.77
2018-09-05T18:39:39.710Z,19.83
2018-09-05T18:42:07.020Z,10.03
2018-09-05T18:44:34.262Z,17.47
2018-09-05T18:47:01.549Z,24.00
2018-09-05T18:49:28.887Z,8.03
2018-09-05T18:51:56.123Z,9.30
2018-09-05T18:54:30.322Z,7.90
2018-09-05T18:56:57.839Z,9.73
2018-09-05T18:59:25.899Z,11.07
2018-09-05T19:01:53.277Z,7.83
2018-09-05T19:04:20.538Z,9.33
2018-09-05T19:06:47.868Z,11.20
2018-09-05T19:09:15.188Z,8.63
2018-09-05T19:11:42.638Z,8.30
2018-09-05T19:14:11.006Z,12.33
2018-09-05T19:16:38.317Z,11.00
2018-09-05T19:19:05.556Z,11.77
2018-09-05T19:21:33.349Z,7.33
2018-09-05T19:24:01.239Z,10.00
2018-09-05T19:26:28.594Z,7.17
2018-09-05T19:28:56.595Z,8.90
2018-09-05T19:31:23.963Z,7.73
2018-09-05T19:33:51.277Z,11.17
2018-09-05T19:36:18.572Z,7.80
2018-09-05T19:38:45.924Z,6.73
2018-09-05T19:41:13.164Z,8.73
2018-09-05T19:43:40.508Z,10.43
2018-09-05T19:46:07.780Z,7.10
2018-09-05T19:48:35.121Z,7.33
2018-09-05T19:51:02.396Z,9.57
2018-09-05T19:53:29.704Z,9.27
2018-09-05T19:55:56.973Z,7.80
2018-09-05T19:58:25.646Z,7.30
2018-09-05T20:00:53.164Z,5.70
2018-09-05T20:03:20.398Z,9.17
2018-09-05T20:05:48.004Z,6.60
2018-09-05T20:08:15.300Z,7.60
2018-09-05T20:10:42.621Z,7.20
2018-09-05T20:13:09.894Z,5.93
2018-09-05T20:15:37.506Z,8.27
2018-09-05T20:18:04.755Z,8.63
2018-09-05T20:20:32.170Z,6.93
2018-09-05T20:22:59.407Z,12.43
2018-09-05T20:25:26.705Z,6.40
2018-09-05T20:27:54.449Z,11.63
2018-09-05T20:30:21.709Z,11.63
2018-09-05T20:32:48.973Z,5.97
2018-09-05T20:35:16.205Z,7.80
2018-09-05T20:37:43.482Z,13.37
2018-09-05T20:40:10.784Z,10.57
2018-09-05T20:42:38.085Z,8.97
2018-09-05T20:45:05.676Z,7.80
2018-09-05T20:47:32.924Z,9.60
2018-09-05T20:50:00.229Z,11.03
2018-09-05T20:52:27.557Z,7.47
2018-09-05T20:54:54.803Z,10.57
2018-09-05T20:57:22.104Z,17.70
2018-09-05T20:59:49.426Z,11.13
2018-09-05T21:02:16.812Z,7.90
2018-09-05T21:04:44.118Z,8.67
2018-09-05T21:07:11.404Z,12.23
2018-09-05T21:09:38.624Z,9.03
2018-09-05T21:12:05.917Z,8.20
2018-09-05T21:14:33.148Z,10.50
2018-09-05T21:17:00.396Z,7.97
2018-09-05T21:19:27.813Z,8.03
2018-09-05T21:21:55.081Z,7.67
2018-09-05T21:24:22.344Z,8.47
2018-09-05T21:26:49.549Z,15.83
2018-09-05T21:29:16.726Z,8.80
2018-09-05T21:31:44.026Z,9.73
2018-09-05T21:34:11.233Z,8.03
2018-09-05T21:36:38.490Z,8.60
2018-09-05T21:39:07.160Z,10.63
2018-09-05T21:41:34.473Z,17.23
2018-09-05T21:44:02.739Z,10.20
2018-09-05T21:46:30.054Z,6.77
2018-09-05T21:48:57.289Z,10.47
2018-09-05T21:51:24.607Z,8.43
2018-09-05T21:53:51.943Z,8.20
2018-09-05T21:56:19.166Z,9.60
2018-09-05T21:58:46.390Z,10.30
2018-09-05T22:01:13.602Z,9.10
2018-09-05T22:03:40.888Z,9.90
2018-09-05T22:06:08.219Z,10.23
2018-09-05T22:08:35.476Z,7.83
2018-09-05T22:11:08.308Z,8.67
2018-09-05T22:13:36.243Z,8.67
2018-09-05T22:16:03.466Z,13.00
2018-09-05T22:18:30.711Z,9.70
2018-09-05T22:20:57.970Z,14.00
2018-09-05T22:23:25.224Z,7.87
2018-09-05T22:25:52.440Z,12.87
2018-09-05T22:28:19.797Z,7.80
2018-09-05T22:30:47.069Z,8.03
2018-09-05T22:33:14.362Z,8.27
2018-09-05T22:35:41.578Z,9.77
2018-09-05T22:38:08.849Z,9.47
2018-09-05T22:40:41.534Z,16.90
2018-09-05T22:43:14.518Z,13.67
2018-09-05T22:45:47.294Z,11.83
2018-09-05T22:49:24.097Z,8.70
2018-09-05T22:52:02.659Z,13.57
2018-09-05T22:56:49.755Z,10.37
2018-09-05T22:59:25.571Z,17.00
2018-09-05T23:04:03.052Z,11.23
2018-09-05T23:06:35.789Z,9.50
2018-09-05T23:09:03.577Z,8.30
2018-09-05T23:11:38.243Z,9.90
2018-09-05T23:14:11.088Z,9.83
2018-09-05T23:17:47.701Z,15.23
2018-09-05T23:20:19.446Z,12.90
2018-09-05T23:22:52.204Z,11.63
2018-09-05T23:25:19.399Z,10.80
2018-09-05T23:27:46.695Z,11.43
2018-09-05T23:30:13.897Z,10.47
2018-09-05T23:32:41.176Z,10.93
2018-09-05T23:35:08.409Z,11.43
2018-09-05T23:37:35.637Z,15.37
2018-09-05T23:40:02.867Z,14.13
2018-09-05T23:42:30.065Z,15.97
2018-09-05T23:44:57.396Z,12.70
2018-09-05T23:47:24.627Z,11.53
2018-09-05T23:49:51.874Z,12.00
2018-09-05T23:52:19.215Z,10.93
2018-09-05T23:54:46.449Z,15.60
2018-09-05T23:57:13.689Z,13.67
2018-09-05T23:59:40.943Z,13.93
